Time;durP1;ratioP1;P1;durP2;ratioP2;P2;SDS_P1;SDS_P2;PMS_P1;PMS_P2;Temp;Humidity;BMP_temperature;BMP_pressure;BME280_temperature;BME280_humidity;BME280_pressure;Samples;Min_cycle;Max_cycle;Signal;HPM_P1;HPM_P2
2023/01/14 00:01:32;;;;;;;4.20;0.98;;;;;;;6.35;79.49;100644.22;7399224;19;20095;-67
2023/01/14 00:04:00;;;;;;;2.80;1.00;;;;;;;6.33;79.72;100635.53;7397348;19;20014;-67
2023/01/14 00:06:30;;;;;;;4.45;1.30;;;;;;;6.32;78.96;100645.09;7396218;19;20429;-66
2023/01/14 00:09:03;;;;;;;6.30;1.33;;;;;;;6.33;79.17;100643.34;7398830;19;20537;-68
2023/01/14 00:14:14;;;;;;;5.18;2.10;;;;;;;6.30;78.32;100643.38;7397423;19;20018;-70
2023/01/14 00:16:43;;;;;;;6.65;1.05;;;;;;;6.28;79.35;100645.13;7395366;19;20478;-67
2023/01/14 00:19:12;;;;;;;7.50;1.40;;;;;;;6.28;78.54;100651.22;7398299;19;20077;-69
2023/01/14 00:21:41;;;;;;;5.72;1.30;;;;;;;6.28;79.90;100659.03;7396109;19;20482;-68
2023/01/14 00:24:13;;;;;;;3.75;1.00;;;;;;;6.24;78.26;100657.28;7396127;19;20052;-68
2023/01/14 00:26:42;;;;;;;2.78;1.13;;;;;;;6.25;79.58;100653.81;7396502;19;20035;-66
2023/01/14 00:29:17;;;;;;;3.55;1.08;;;;;;;6.25;79.50;100656.44;7398379;19;20078;-67
2023/01/14 00:31:47;;;;;;;4.78;1.10;;;;;;;6.23;78.94;100652.97;7396648;19;20040;-68
2023/01/14 00:34:16;;;;;;;2.53;1.05;;;;;;;6.22;78.75;100664.28;7395860;19;20086;-68
2023/01/14 00:36:51;;;;;;;3.25;1.00;;;;;;;6.21;78.46;100664.28;7397347;19;20091;-67
2023/01/14 00:39:22;;;;;;;5.00;1.05;;;;;;;6.22;79.18;100669.47;7397452;19;20081;-67
2023/01/14 00:41:51;;;;;;;3.33;1.17;;;;;;;6.24;79.76;100666.88;7398354;19;20094;-67
2023/01/14 00:44:20;;;;;;;1.50;0.85;;;;;;;6.24;79.63;100664.25;7396295;19;20077;-68
2023/01/14 00:46:50;;;;;;;4.30;0.93;;;;;;;6.24;79.53;100659.91;7398148;19;20082;-67
2023/01/14 00:49:27;;;;;;;2.97;0.85;;;;;;;6.22;79.04;100660.78;7396265;19;20023;-68
2023/01/14 00:51:56;;;;;;;4.05;0.80;;;;;;;6.25;79.54;100677.28;7397212;19;20018;-68
2023/01/14 00:54:27;;;;;;;3.80;1.13;;;;;;;6.24;78.69;100678.13;7395544;19;20029;-68
2023/01/14 00:56:56;;;;;;;4.47;1.40;;;;;;;6.25;79.34;100674.66;7397170;19;20073;-69
2023/01/14 00:59:26;;;;;;;4.53;1.45;;;;;;;6.26;79.46;100676.41;7397251;19;20018;-69
2023/01/14 01:01:55;;;;;;;4.18;1.10;;;;;;;6.26;79.49;100678.16;7396984;19;20078;-67
2023/01/14 01:04:24;;;;;;;3.05;1.33;;;;;;;6.27;79.52;100683.34;7395338;19;20018;-68
2023/01/14 01:06:52;;;;;;;3.35;1.27;;;;;;;6.27;79.89;100691.16;7397083;19;20078;-70
2023/01/14 01:09:20;;;;;;;2.47;1.73;;;;;;;6.27;79.17;100685.97;7397118;19;20015;-69
2023/01/14 01:11:52;;;;;;;3.92;1.48;;;;;;;6.27;78.46;100691.16;7396993;19;20512;-68
2023/01/14 01:14:20;;;;;;;4.15;0.88;;;;;;;6.28;79.11;100682.47;7395125;19;20542;-68
2023/01/14 01:16:48;;;;;;;6.40;1.10;;;;;;;6.27;78.64;100680.75;7395908;19;20078;-68
2023/01/14 01:19:17;;;;;;;5.70;1.20;;;;;;;6.28;79.54;100698.13;7396811;19;20039;-67
2023/01/14 01:21:45;;;;;;;3.60;1.33;;;;;;;6.27;79.16;100701.59;7396264;19;20085;-67
2023/01/14 01:24:14;;;;;;;4.13;1.10;;;;;;;6.26;79.68;100701.59;7394872;19;20014;-68
2023/01/14 01:26:45;;;;;;;4.53;1.35;;;;;;;6.22;79.90;100690.31;7396530;19;20035;-67
2023/01/14 01:29:17;;;;;;;4.40;1.63;;;;;;;6.15;79.73;100697.28;7393061;19;20022;-68
2023/01/14 01:31:45;;;;;;;4.07;1.67;;;;;;;6.14;80.04;100705.09;7396937;19;20045;-68
2023/01/14 01:34:14;;;;;;;3.88;1.55;;;;;;;6.11;80.29;100716.41;7394291;19;20075;-70
2023/01/14 01:36:42;;;;;;;3.20;1.45;;;;;;;6.10;80.66;100716.41;7395876;19;20027;-68
2023/01/14 01:39:10;;;;;;;5.60;1.40;;;;;;;6.06;80.51;100719.91;7395889;19;20481;-67
2023/01/14 01:41:39;;;;;;;3.83;1.27;;;;;;;6.03;80.57;100719.03;7396076;19;20101;-68
2023/01/14 01:44:10;;;;;;;6.15;1.30;;;;;;;6.00;80.97;100726.00;7394212;19;20018;-68
2023/01/14 01:46:42;;;;;;;6.63;1.50;;;;;;;5.98;80.74;100731.22;7396268;19;20031;-67
2023/01/14 01:49:13;;;;;;;5.47;1.52;;;;;;;5.95;80.32;100730.31;7394639;19;20070;-67
2023/01/14 01:51:45;;;;;;;4.95;1.63;;;;;;;5.94;81.33;100739.88;7394471;19;20421;-68
2023/01/14 01:54:15;;;;;;;2.97;1.55;;;;;;;5.91;81.54;100732.06;7394366;19;20070;-73
2023/01/14 01:56:46;;;;;;;3.13;1.27;;;;;;;5.92;81.11;100739.00;7394989;19;20558;-68
2023/01/14 01:59:18;;;;;;;4.93;1.30;;;;;;;5.88;81.08;100745.97;7394196;19;20032;-68
2023/01/14 02:01:51;;;;;;;3.65;1.10;;;;;;;5.85;81.52;100745.97;7395627;19;20183;-68
2023/01/14 02:04:20;;;;;;;5.10;1.50;;;;;;;5.82;82.01;100752.94;7393886;19;20035;-69
2023/01/14 02:06:49;;;;;;;6.18;1.50;;;;;;;5.74;81.84;100750.34;7395467;19;20077;-68
2023/01/14 02:09:19;;;;;;;2.55;1.35;;;;;;;5.73;82.44;100755.56;7395218;19;20092;-68
2023/01/14 02:12:00;;;;;;;5.82;1.35;;;;;;;5.69;82.71;100765.09;7394752;19;20078;-68
2023/01/14 02:14:45;;;;;;;5.90;1.27;;;;;;;5.66;82.81;100765.97;7392699;19;20027;-68
2023/01/14 02:17:26;;;;;;;4.28;1.38;;;;;;;5.62;83.08;100760.75;7396537;19;20081;-73
2023/01/14 02:20:18;;;;;;;5.82;1.85;;;;;;;5.60;83.51;100765.97;7397086;19;20018;-70
2023/01/14 02:23:30;;;;;;;4.05;1.20;;;;;;;5.55;83.71;100767.72;7394833;19;20074;-69
2023/01/14 02:26:45;;;;;;;5.35;1.30;;;;;;;5.53;83.93;100766.84;7395104;19;20086;-68
2023/01/14 02:29:28;;;;;;;;;;;;;;;5.51;84.06;100773.78;7392284;19;20015;-69
2023/01/14 02:32:28;;;;;;;3.58;1.10;;;;;;;5.50;84.38;100774.66;7394957;19;20379;-70
2023/01/14 02:35:02;;;;;;;3.60;1.42;;;;;;;5.50;84.53;100772.06;7394003;19;20485;-69
2023/01/14 02:37:34;;;;;;;;;;;;;;;5.50;84.29;100772.91;7396051;19;20085;-71
2023/01/14 02:40:10;;;;;;;7.63;1.77;;;;;;;5.52;84.72;100767.72;7397843;19;19990;-69
2023/01/14 02:45:31;;;;;;;3.28;1.50;;;;;;;5.54;84.49;100774.66;7404923;19;20018;-69
2023/01/14 02:48:02;;;;;;;;;;;;;;;5.55;83.70;100783.34;7402307;19;20014;-69
2023/01/14 02:50:32;;;;;;;6.13;1.50;;;;;;;5.59;84.22;100786.81;7403888;19;19939;-69
2023/01/14 02:53:01;;;;;;;7.28;1.60;;;;;;;5.60;84.58;100794.59;7401292;19;20086;-67
2023/01/14 02:55:32;;;;;;;5.72;1.63;;;;;;;5.60;83.96;100796.31;7400962;19;20019;-68
2023/01/14 02:58:27;;;;;;;4.00;1.50;;;;;;;5.60;84.18;100794.59;7402039;19;20029;-67
2023/01/14 03:01:04;;;;;;;7.95;1.88;;;;;;;5.60;84.11;100798.94;7400587;19;20481;-67
2023/01/14 03:03:48;;;;;;;4.00;1.30;;;;;;;5.61;83.92;100803.28;7400321;19;20069;-67
2023/01/14 03:06:25;;;;;;;5.72;2.13;;;;;;;5.61;84.01;100809.38;7400303;19;20098;-67
2023/01/14 03:09:01;;;;;;;4.30;1.50;;;;;;;5.62;83.47;100805.88;7399361;19;20482;-67
2023/01/14 03:11:50;;;;;;;7.05;1.80;;;;;;;5.63;83.84;100812.81;7400067;19;20045;-65
2023/01/14 03:14:38;;;;;;;3.53;1.58;;;;;;;5.64;83.25;100809.34;7399053;19;20015;-67
2023/01/14 03:17:12;;;;;;;6.70;1.98;;;;;;;5.66;83.65;100806.75;7402294;19;20085;-65
2023/01/14 03:19:48;;;;;;;7.38;1.90;;;;;;;5.66;84.05;100802.41;7399303;19;20436;-68
2023/01/14 03:22:17;;;;;;;5.57;1.75;;;;;;;5.66;84.03;100812.84;7402226;19;20502;-66
2023/01/14 03:24:47;;;;;;;4.75;1.85;;;;;;;5.64;83.75;100811.94;7398744;19;20078;-68
2023/01/14 03:27:23;;;;;;;7.70;1.60;;;;;;;5.64;83.89;100808.50;7399874;19;20091;-68
2023/01/14 03:29:55;;;;;;;4.88;1.90;;;;;;;5.61;84.03;100817.16;7399450;19;20018;-68
2023/01/14 03:32:28;;;;;;;4.88;1.50;;;;;;;5.63;83.85;100823.22;7399020;19;20082;-69
2023/01/14 03:35:06;;;;;;;3.90;1.23;;;;;;;5.64;83.93;100818.91;7398973;19;20086;-69
2023/01/14 03:37:35;;;;;;;5.97;1.40;;;;;;;5.64;83.69;100818.91;7400536;19;20074;-69
2023/01/14 03:40:08;;;;;;;4.72;1.58;;;;;;;5.66;83.98;100827.56;7398041;19;20112;-69
2023/01/14 03:42:43;;;;;;;7.32;1.63;;;;;;;5.66;84.07;100828.44;7401333;19;20074;-68
2023/01/14 03:45:17;;;;;;;6.40;1.63;;;;;;;5.66;83.86;100828.44;7398360;19;20082;-69
2023/01/14 03:47:47;;;;;;;5.07;1.80;;;;;;;5.64;82.87;100834.53;7398750;19;20086;-69
2023/01/14 03:50:23;;;;;;;8.18;1.58;;;;;;;5.64;84.31;100840.59;7400994;19;20066;-68
2023/01/14 03:53:03;;;;;;;4.75;2.30;;;;;;;5.65;83.73;100842.31;7399244;19;20014;-69
2023/01/14 03:55:39;;;;;;;6.05;1.40;;;;;;;5.64;83.74;100848.41;7397721;19;20021;-69
2023/01/14 03:58:14;;;;;;;4.90;1.42;;;;;;;5.63;83.99;100833.63;7399171;19;20081;-69
2023/01/14 04:00:50;;;;;;;6.15;1.45;;;;;;;5.63;83.57;100844.06;7397529;19;20066;-69
2023/01/14 04:03:19;;;;;;;4.65;1.70;;;;;;;5.65;83.73;100844.94;7397716;19;20014;-67
2023/01/14 04:05:50;;;;;;;5.95;1.50;;;;;;;5.67;83.99;100843.22;7397866;19;20014;-69
2023/01/14 04:08:21;;;;;;;6.78;1.90;;;;;;;5.68;83.62;100847.53;7399866;19;20426;-68
2023/01/14 04:10:50;;;;;;;5.28;1.70;;;;;;;5.72;83.71;100848.41;7397747;19;20085;-68
2023/01/14 04:16:08;;;;;;;7.05;1.83;;;;;;;5.75;83.50;100861.44;7396509;19;20493;-68
2023/01/14 04:18:36;;;;;;;8.85;1.45;;;;;;;5.76;83.83;100864.88;7396904;19;20378;-68
2023/01/14 04:21:07;;;;;;;8.63;1.75;;;;;;;5.77;83.52;100857.06;7400253;19;20075;-68
2023/01/14 04:23:36;;;;;;;6.95;1.83;;;;;;;5.78;83.69;100856.22;7397854;19;20078;-68
2023/01/14 04:26:05;;;;;;;5.18;1.60;;;;;;;5.79;83.69;100868.34;7399954;19;20028;-68
2023/01/14 04:28:33;;;;;;;6.30;1.73;;;;;;;5.80;83.25;100858.81;7405215;19;20022;-68
2023/01/14 04:31:01;;;;;;;6.18;1.65;;;;;;;5.82;83.54;100854.47;7406088;19;20079;-67
2023/01/14 04:33:30;;;;;;;5.95;1.20;;;;;;;5.82;82.71;100860.53;7399065;19;20092;-68
2023/01/14 04:35:58;;;;;;;5.63;1.02;;;;;;;5.84;83.36;100870.97;7396859;19;20022;-68
2023/01/14 04:38:29;;;;;;;7.82;1.27;;;;;;;5.85;83.45;100857.94;7397904;19;20025;-68
2023/01/14 04:40:58;;;;;;;2.55;0.93;;;;;;;5.87;83.20;100864.00;7397698;19;20070;-68
2023/01/14 04:43:24;;;;;;;5.22;1.17;;;;;;;5.88;82.65;100860.53;7396667;19;20035;-68
2023/01/14 04:45:54;;;;;;;6.00;1.25;;;;;;;5.83;83.36;100857.06;7398644;19;20018;-68
2023/01/14 04:48:24;;;;;;;4.28;1.52;;;;;;;5.91;83.09;100877.03;7398062;19;20081;-68
2023/01/14 04:50:53;;;;;;;4.93;1.13;;;;;;;5.91;83.03;100875.28;7395989;19;20055;-68
2023/01/14 04:53:23;;;;;;;5.30;1.25;;;;;;;5.90;82.97;100873.53;7396073;19;20083;-67
2023/01/14 04:55:58;;;;;;;6.97;1.17;;;;;;;5.94;82.99;100883.13;7396599;19;20074;-68
2023/01/14 04:58:26;;;;;;;8.05;1.60;;;;;;;5.97;83.23;100880.50;7395587;19;20010;-68
2023/01/14 05:00:55;;;;;;;5.60;1.15;;;;;;;5.98;82.95;100879.66;7398432;19;20431;-68
2023/01/14 05:03:23;;;;;;;3.95;1.15;;;;;;;6.00;82.38;100875.34;7393891;19;20078;-67
2023/01/14 05:05:51;;;;;;;6.78;1.50;;;;;;;6.03;82.89;100883.13;7397282;19;20086;-67
2023/01/14 05:08:20;;;;;;;7.72;1.50;;;;;;;6.03;81.88;100885.75;7396784;19;20520;-68
2023/01/14 05:10:50;;;;;;;7.55;1.65;;;;;;;6.06;81.94;100881.41;7396640;19;20159;-68
2023/01/14 05:13:21;;;;;;;4.97;1.48;;;;;;;6.09;82.38;100891.81;7398022;19;20023;-69
2023/01/14 05:15:55;;;;;;;6.90;1.50;;;;;;;6.10;82.14;100891.81;7395148;19;20425;-69
2023/01/14 05:18:25;;;;;;;6.22;1.73;;;;;;;6.13;82.50;100903.97;7396600;19;20015;-68
2023/01/14 05:20:53;;;;;;;8.30;1.55;;;;;;;6.14;82.58;100890.06;7396224;19;20021;-68
2023/01/14 05:23:22;;;;;;;5.32;1.40;;;;;;;6.15;82.19;100892.66;7397352;19;20027;-69
2023/01/14 05:25:50;;;;;;;5.63;1.23;;;;;;;6.17;82.38;100897.91;7396287;19;20015;-68
2023/01/14 05:28:22;;;;;;;7.20;1.88;;;;;;;6.18;82.19;100894.44;7397150;19;20425;-68
2023/01/14 05:30:51;;;;;;;6.35;1.60;;;;;;;6.19;82.90;100896.13;7396201;19;20022;-68
2023/01/14 05:33:19;;;;;;;6.72;1.52;;;;;;;6.19;82.75;100898.75;7396045;19;20428;-68
2023/01/14 05:35:48;;;;;;;7.85;1.60;;;;;;;6.21;82.59;100902.22;7395592;19;20086;-68
2023/01/14 05:38:16;;;;;;;5.32;1.67;;;;;;;6.20;82.20;100892.66;7394908;19;20553;-68
2023/01/14 05:40:46;;;;;;;3.97;1.20;;;;;;;6.18;82.54;100892.69;7396997;19;20007;-68
2023/01/14 05:45:57;;;;;;;7.15;1.27;;;;;;;6.19;82.89;100902.22;7397866;19;20022;-67
2023/01/14 05:48:27;;;;;;;4.82;1.25;;;;;;;6.21;82.41;100904.81;7395540;19;20086;-67
2023/01/14 05:50:57;;;;;;;5.20;1.40;;;;;;;6.21;82.59;100914.41;7396852;19;20023;-67
2023/01/14 05:53:27;;;;;;;3.83;1.02;;;;;;;6.19;82.83;100906.56;7395285;19;20074;-67
2023/01/14 05:55:56;;;;;;;7.55;1.80;;;;;;;6.18;82.86;100904.84;7396560;19;20099;-67
2023/01/14 05:58:25;;;;;;;9.95;2.30;;;;;;;6.21;82.99;100914.41;7395838;19;20090;-68
2023/01/14 06:06:25;;;;;;;5.75;1.35;;;;;;;6.19;82.77;100917.88;7396831;19;20015;-68
2023/01/14 06:08:56;;;;;;;5.70;1.20;;;;;;;6.19;82.93;100924.78;7394898;19;20018;-67
2023/01/14 06:11:26;;;;;;;7.82;1.58;;;;;;;6.19;82.89;100930.91;7395840;19;20435;-69
2023/01/14 06:13:57;;;;;;;6.18;1.85;;;;;;;6.18;82.83;100926.53;7395189;19;20015;-69
2023/01/14 06:16:26;;;;;;;6.00;1.33;;;;;;;6.19;82.81;100933.50;7400862;19;20387;-68
2023/01/14 06:18:58;;;;;;;5.47;1.40;;;;;;;6.19;83.02;100937.81;7402206;19;20532;-68
2023/01/14 06:21:30;;;;;;;6.88;1.50;;;;;;;6.17;82.89;100937.84;7400416;19;20417;-68
2023/01/14 06:24:00;;;;;;;6.53;1.23;;;;;;;6.17;82.55;100937.84;7401494;19;20025;-68
2023/01/14 06:26:29;;;;;;;7.47;1.45;;;;;;;6.16;82.71;100936.09;7403640;19;20093;-68
2023/01/14 06:28:59;;;;;;;6.97;1.58;;;;;;;6.17;82.88;100937.84;7403547;19;20019;-68
2023/01/14 06:31:28;;;;;;;5.20;1.42;;;;;;;6.16;81.44;100933.47;7400421;19;20041;-69
2023/01/14 06:34:01;;;;;;;8.73;1.63;;;;;;;6.15;82.00;100921.31;7402255;19;20371;-68
2023/01/14 06:36:30;;;;;;;5.45;1.50;;;;;;;6.04;81.67;100912.69;7402221;19;20074;-68
2023/01/14 06:38:59;;;;;;;4.78;1.38;;;;;;;6.13;82.04;100924.78;7409556;19;20081;-68
2023/01/14 06:41:28;;;;;;;5.45;1.50;;;;;;;6.14;82.19;100919.59;7400934;19;20010;-68
2023/01/14 06:43:57;;;;;;;5.13;1.55;;;;;;;6.14;81.97;100923.94;7401736;19;20086;-70
2023/01/14 06:46:25;;;;;;;7.75;1.40;;;;;;;6.11;81.49;100922.19;7400449;19;20029;-68
2023/01/14 06:48:53;;;;;;;5.15;1.15;;;;;;;6.12;81.97;100912.66;7401085;19;20078;-68
2023/01/14 06:51:25;;;;;;;6.22;1.33;;;;;;;6.12;82.56;100918.72;7405861;19;20082;-68
2023/01/14 06:53:54;;;;;;;4.10;1.33;;;;;;;6.12;82.31;100934.34;7407289;19;20010;-68
2023/01/14 06:56:22;;;;;;;7.15;1.58;;;;;;;6.10;82.38;100920.47;7407455;19;20447;-68
2023/01/14 06:58:51;;;;;;;8.40;2.70;;;;;;;6.02;82.62;100902.22;7407415;19;20027;-68
2023/01/14 07:01:21;;;;;;;6.15;1.35;;;;;;;5.99;82.10;100910.06;7409253;19;20014;-68
2023/01/14 07:03:49;;;;;;;5.88;1.35;;;;;;;6.05;82.27;100932.63;7429920;19;20015;-68
2023/01/14 07:06:18;;;;;;;4.75;1.30;;;;;;;6.05;82.31;100930.00;7432034;19;20011;-68
2023/01/14 07:08:49;;;;;;;2.33;1.15;;;;;;;6.03;82.52;100930.03;7428847;19;20014;-69
2023/01/14 07:11:17;;;;;;;6.85;1.50;;;;;;;6.02;82.54;100930.88;7432782;19;20024;-68
2023/01/14 07:13:46;;;;;;;5.93;1.33;;;;;;;6.01;82.84;100928.28;7419802;19;20039;-68
2023/01/14 07:16:14;;;;;;;5.60;1.42;;;;;;;6.00;82.83;100927.44;7398089;19;20537;-68
2023/01/14 07:18:43;;;;;;;6.10;1.83;;;;;;;5.98;82.92;100928.25;7399484;19;20073;-69
2023/01/14 07:21:11;;;;;;;5.93;1.42;;;;;;;5.97;83.08;100931.72;7399251;19;20090;-68
2023/01/14 07:23:39;;;;;;;4.75;1.40;;;;;;;5.95;83.05;100936.94;7398284;19;20420;-68
2023/01/14 07:26:10;;;;;;;2.80;1.23;;;;;;;5.92;82.87;100929.13;7398210;19;20086;-68
2023/01/14 07:28:39;;;;;;;5.00;1.40;;;;;;;5.91;83.13;100932.56;7398761;19;20028;-68
2023/01/14 07:31:08;;;;;;;9.70;2.33;;;;;;;5.90;83.30;100936.03;7402922;19;20011;-67
2023/01/14 07:33:37;;;;;;;6.68;1.50;;;;;;;5.87;83.28;100931.69;7401122;19;20018;-67
2023/01/14 07:36:06;;;;;;;5.30;1.50;;;;;;;5.84;83.34;100933.47;7401369;19;20022;-67
2023/01/14 07:38:35;;;;;;;5.97;1.50;;;;;;;5.74;83.65;100922.16;7401328;19;20097;-68
2023/01/14 07:41:03;;;;;;;5.63;1.27;;;;;;;5.80;83.62;100939.50;7401772;19;20051;-68
2023/01/14 07:43:34;;;;;;;5.97;1.50;;;;;;;5.75;83.54;100936.94;7402809;19;20082;-67
2023/01/14 07:46:03;;;;;;;5.10;1.48;;;;;;;5.72;84.04;100934.31;7401680;19;20074;-67
2023/01/14 07:48:32;;;;;;;3.35;1.33;;;;;;;5.69;83.84;100929.09;7400913;19;20541;-67
2023/01/14 07:51:00;;;;;;;7.85;1.60;;;;;;;5.63;83.97;100937.75;7400810;19;20020;-67
2023/01/14 07:53:29;;;;;;;5.28;1.70;;;;;;;5.64;84.03;100938.66;7401739;19;20014;-68
2023/01/14 07:55:57;;;;;;;9.38;1.63;;;;;;;5.62;84.03;100941.22;7406425;19;20044;-67
2023/01/14 07:58:26;;;;;;;7.32;1.52;;;;;;;5.60;84.28;100939.47;7404945;19;20096;-68
2023/01/14 08:00:57;;;;;;;9.70;2.10;;;;;;;5.58;84.20;100931.69;7407099;19;20031;-67
2023/01/14 08:03:27;;;;;;;4.78;1.65;;;;;;;5.38;84.01;100903.00;7405410;19;20489;-66
2023/01/14 08:05:56;;;;;;;5.35;1.30;;;;;;;5.55;83.90;100929.09;7406795;19;20031;-67
2023/01/14 08:08:24;;;;;;;6.63;1.40;;;;;;;5.52;84.33;100927.34;7403481;19;20027;-68
2023/01/14 08:10:53;;;;;;;5.65;2.00;;;;;;;5.53;84.24;100916.06;7403446;19;20039;-68
2023/01/14 08:13:22;;;;;;;6.43;1.67;;;;;;;5.52;84.25;100922.13;7399937;19;20014;-69
2023/01/14 08:16:09;;;;;;;6.32;1.60;;;;;;;5.51;83.94;100922.13;7396931;19;20078;-68
2023/01/14 08:18:38;;;;;;;5.63;1.30;;;;;;;5.49;84.26;100921.25;7398704;19;20524;-68
2023/01/14 08:21:08;;;;;;;5.18;1.73;;;;;;;5.48;84.37;100927.31;7399005;19;20035;-69
2023/01/14 08:23:37;;;;;;;9.23;1.90;;;;;;;5.46;84.26;100913.44;7399128;19;20022;-69
2023/01/14 08:26:08;;;;;;;9.30;1.40;;;;;;;5.41;84.83;100915.16;7397995;19;20085;-67
2023/01/14 08:28:37;;;;;;;9.10;2.03;;;;;;;5.39;84.35;100908.22;7399677;19;20039;-67
2023/01/14 08:31:10;;;;;;;4.93;1.60;;;;;;;5.37;84.76;100906.47;7401211;19;20082;-67
2023/01/14 08:33:39;;;;;;;4.90;1.70;;;;;;;5.33;84.89;100900.41;7400206;19;20037;-68
2023/01/14 08:36:11;;;;;;;8.55;2.25;;;;;;;5.33;84.75;100902.13;7398800;19;20018;-68
2023/01/14 08:38:41;;;;;;;7.18;1.90;;;;;;;5.28;85.05;100912.53;7399769;19;20010;-69
2023/01/14 08:41:12;;;;;;;9.25;2.40;;;;;;;5.26;85.01;100901.25;7400522;19;20019;-67
2023/01/14 08:43:42;;;;;;;12.43;3.53;;;;;;;5.22;84.97;100907.31;7398192;19;20035;-68
2023/01/14 08:46:13;;;;;;;8.50;3.17;;;;;;;5.21;85.18;100905.56;7399070;19;20040;-68
2023/01/14 08:48:41;;;;;;;9.95;3.30;;;;;;;5.21;85.16;100906.44;7398404;19;20035;-67
2023/01/14 08:51:14;;;;;;;18.95;8.27;;;;;;;5.22;85.23;100913.38;7398243;19;20015;-69
2023/01/14 08:53:43;;;;;;;12.55;4.28;;;;;;;5.22;85.04;100921.19;7400388;19;20041;-67
2023/01/14 08:56:16;;;;;;;13.73;3.08;;;;;;;5.24;85.21;100912.53;7399553;19;20090;-69
2023/01/14 08:58:45;;;;;;;9.77;2.92;;;;;;;5.27;85.32;100916.00;7406821;19;20034;-67
2023/01/14 09:01:16;;;;;;;6.40;2.17;;;;;;;5.29;84.87;100916.00;7409271;19;20019;-67
2023/01/14 09:03:45;;;;;;;9.68;2.47;;;;;;;5.31;85.16;100922.94;7405903;19;20018;-67
2023/01/14 09:06:16;;;;;;;8.27;1.98;;;;;;;5.33;84.89;100921.22;7404033;19;20478;-69
2023/01/14 09:17:10;;;;;;;8.48;2.17;;;;;;;5.43;84.35;100929.91;7397795;19;20110;-68
2023/01/14 09:19:41;;;;;;;11.95;2.30;;;;;;;5.47;84.49;100928.19;7398013;19;20054;-68
2023/01/14 09:22:13;;;;;;;9.45;2.13;;;;;;;5.51;83.98;100929.91;7398854;19;20023;-68
2023/01/14 09:24:41;;;;;;;9.63;2.47;;;;;;;5.49;84.01;100923.88;7397945;19;20074;-70
2023/01/14 09:27:10;;;;;;;9.85;2.03;;;;;;;5.58;83.88;100934.28;7398542;19;20055;-68
2023/01/14 09:29:38;;;;;;;10.85;2.10;;;;;;;5.62;83.72;100927.34;7399255;19;20074;-68
2023/01/14 09:32:12;;;;;;;9.15;1.70;;;;;;;5.65;83.17;100919.53;7397159;19;20019;-69
2023/01/14 09:34:41;;;;;;;;;;;;;;;5.69;82.98;100927.34;7397574;19;20078;-66
2023/01/14 09:37:10;;;;;;;12.57;2.20;;;;;;;5.71;82.40;100915.22;7397295;19;19931;-67
2023/01/14 09:39:38;;;;;;;9.75;2.03;;;;;;;5.76;83.18;100911.75;7396715;19;20078;-68
2023/01/14 09:42:10;;;;;;;9.77;2.05;;;;;;;5.83;82.68;100903.94;7397641;19;20011;-68
2023/01/14 09:44:39;;;;;;;13.88;1.88;;;;;;;5.84;81.48;100891.81;7395831;19;20038;-69
2023/01/14 09:47:10;;;;;;;10.35;2.25;;;;;;;5.98;82.15;100897.00;7397573;19;20097;-67
2023/01/14 09:49:42;;;;;;;9.57;2.38;;;;;;;6.06;81.58;100897.03;7393796;19;20007;-68
2023/01/14 09:52:46;;;;;;;10.60;1.83;;;;;;;6.13;80.37;100881.41;7405886;19;20023;-68
2023/01/14 09:55:20;;;;;;;9.00;2.65;;;;;;;6.19;80.83;100868.38;7394880;19;20022;-68
2023/01/14 09:57:55;;;;;;;10.70;2.20;;;;;;;6.26;80.65;100866.59;7394574;19;20025;-68
2023/01/14 10:00:34;;;;;;;11.30;2.60;;;;;;;6.33;78.87;100865.72;7396526;19;20021;-68
2023/01/14 10:03:24;;;;;;;15.07;3.30;;;;;;;6.37;79.03;100864.00;7396728;19;20078;-69
2023/01/14 10:06:00;;;;;;;11.95;2.97;;;;;;;6.43;79.60;100857.88;7396491;19;20041;-67
2023/01/14 10:08:33;;;;;;;11.32;2.78;;;;;;;6.46;78.67;100850.06;7399133;19;20042;-68
2023/01/14 10:11:04;;;;;;;11.32;1.63;;;;;;;6.49;78.15;100853.50;7394971;19;20091;-68
2023/01/14 10:13:36;;;;;;;12.25;2.22;;;;;;;6.54;77.78;100847.44;7394844;19;20022;-67
2023/01/14 10:16:10;;;;;;;7.72;1.80;;;;;;;6.59;77.98;100848.28;7395599;19;20418;-69
2023/01/14 10:18:47;;;;;;;8.77;2.55;;;;;;;6.65;77.16;100854.34;7395050;19;20015;-69
2023/01/14 10:21:25;;;;;;;10.00;1.52;;;;;;;6.67;77.06;100844.78;7394927;19;20022;-67
2023/01/14 10:23:53;;;;;;;7.63;1.88;;;;;;;6.75;78.04;100843.84;7394515;19;20055;-69
2023/01/14 10:26:25;;;;;;;8.50;1.55;;;;;;;6.71;77.49;100821.28;7394599;19;20023;-68
2023/01/14 10:28:56;;;;;;;10.38;3.08;;;;;;;6.83;77.01;100821.22;7394807;19;20406;-68
2023/01/14 10:34:44;;;;;;;11.23;2.10;;;;;;;6.89;73.45;100805.56;7386660;19;20466;-70
2023/01/14 10:37:16;;;;;;;5.78;1.98;;;;;;;6.92;75.79;100802.91;7393065;19;20090;-70
2023/01/14 10:39:50;;;;;;;8.88;2.22;;;;;;;6.99;75.96;100803.75;7393682;19;20074;-70
2023/01/14 10:42:20;;;;;;;;;;;;;;;7.03;73.42;100796.75;7394873;19;20015;-70
2023/01/14 10:44:49;;;;;;;9.95;2.35;;;;;;;7.06;75.52;100796.75;7392164;19;19939;-69
2023/01/14 10:47:19;;;;;;;10.63;2.35;;;;;;;7.09;75.01;100797.59;7393749;19;20098;-70
2023/01/14 10:49:52;;;;;;;16.13;4.80;;;;;;;7.12;74.00;100794.13;7393846;19;20081;-71
2023/01/14 10:52:28;;;;;;;14.05;3.33;;;;;;;7.16;73.10;100782.78;7393458;19;20074;-69
2023/01/14 10:55:02;;;;;;;9.77;3.17;;;;;;;7.17;72.33;100774.91;7391886;19;20018;-69
2023/01/14 10:57:32;;;;;;;13.55;4.38;;;;;;;7.21;73.36;100765.34;7393576;19;20521;-69
2023/01/14 11:00:03;;;;;;;7.57;2.63;;;;;;;7.25;73.59;100767.03;7393949;19;20082;-69
2023/01/14 11:02:36;;;;;;;7.97;2.92;;;;;;;7.28;73.62;100760.94;7399656;19;20489;-69
2023/01/14 11:05:07;;;;;;;8.87;1.60;;;;;;;7.30;73.16;100747.00;7401389;19;20019;-69
2023/01/14 11:07:43;;;;;;;11.13;2.40;;;;;;;7.34;73.08;100740.00;7397544;19;20142;-68
2023/01/14 11:10:21;;;;;;;9.43;2.45;;;;;;;7.38;70.60;100735.63;7400215;19;20017;-69
2023/01/14 11:12:50;;;;;;;6.43;1.95;;;;;;;7.39;72.83;100722.56;7399954;19;20022;-70
2023/01/14 11:15:37;;;;;;;7.07;2.05;;;;;;;7.43;71.12;100719.06;7400673;19;20428;-70
2023/01/14 11:18:24;;;;;;;12.25;2.90;;;;;;;7.47;70.91;100719.91;7399352;19;20113;-70
2023/01/14 11:21:07;;;;;;;22.85;6.13;;;;;;;7.50;70.51;100712.88;7398330;19;20024;-71
2023/01/14 11:23:40;;;;;;;11.68;3.55;;;;;;;7.53;70.83;100711.97;7399483;19;20086;-71
2023/01/14 11:26:12;;;;;;;15.10;3.23;;;;;;;7.56;71.40;100705.91;7399497;19;20078;-70
2023/01/14 11:28:45;;;;;;;15.75;2.55;;;;;;;7.58;71.94;100707.59;7400394;19;20022;-71
2023/01/14 11:31:15;;;;;;;7.63;2.08;;;;;;;7.61;71.58;100702.34;7400090;19;20022;-70
2023/01/14 11:33:52;;;;;;;7.78;1.90;;;;;;;7.65;71.24;100703.19;7397444;19;20086;-71
2023/01/14 11:36:29;;;;;;;12.43;2.28;;;;;;;7.67;69.38;100701.41;7399757;19;20031;-71
2023/01/14 11:39:02;;;;;;;8.65;1.73;;;;;;;7.71;71.03;100686.56;7399748;19;20029;-71
2023/01/14 11:41:33;;;;;;;8.80;2.13;;;;;;;7.73;71.43;100683.06;7397134;19;20518;-71
2023/01/14 11:44:04;;;;;;;11.73;2.17;;;;;;;7.75;70.74;100680.44;7401208;19;20560;-72
2023/01/14 11:46:36;;;;;;;9.57;1.83;;;;;;;7.79;71.00;100671.69;7400508;19;20030;-70
2023/01/14 11:49:18;;;;;;;12.23;2.83;;;;;;;7.80;69.11;100665.59;7399610;19;20007;-71
2023/01/14 11:51:59;;;;;;;8.73;2.58;;;;;;;7.83;69.03;100657.72;7396034;19;20007;-71
2023/01/14 11:54:36;;;;;;;9.30;3.10;;;;;;;7.84;69.81;100651.59;7396228;19;20023;-71
2023/01/14 11:57:05;;;;;;;15.75;3.55;;;;;;;7.85;70.96;100644.63;7399309;19;20029;-71
2023/01/14 11:59:36;;;;;;;8.18;2.40;;;;;;;7.87;70.51;100633.25;7399005;19;20078;-71
2023/01/14 12:02:13;;;;;;;8.80;2.53;;;;;;;7.89;70.58;100622.81;7396249;19;20364;-71
2023/01/14 12:04:48;;;;;;;5.72;1.80;;;;;;;7.90;69.46;100620.19;7396522;19;20082;-71
2023/01/14 12:07:22;;;;;;;10.63;2.00;;;;;;;7.92;69.54;100610.59;7398225;19;20018;-71
2023/01/14 12:09:59;;;;;;;6.70;1.58;;;;;;;7.92;69.25;100607.09;7398781;19;20419;-73
2023/01/14 12:16:48;;;;;;;7.25;1.65;;;;;;;7.95;70.27;100601.84;7397490;19;20106;-72
2023/01/14 12:18:10;;;;;;;11.73;2.35;;;;;;;7.94;69.88;100569.63;7398264;19;20009;-71
2023/01/14 12:20:39;;;;;;;9.63;2.17;;;;;;;7.95;69.92;100579.19;7400657;19;20026;-72
2023/01/14 12:23:16;;;;;;;8.75;1.77;;;;;;;7.94;68.77;100569.63;7398713;19;20471;-70
2023/01/14 12:25:51;;;;;;;12.82;2.40;;;;;;;7.94;68.38;100559.16;7398712;19;20026;-71
2023/01/14 12:28:29;;;;;;;11.63;2.40;;;;;;;7.94;68.89;100560.94;7397827;19;20017;-71